Time,TemperatureF,DewpointF,PressureIn,WindDirection,WindDirectionDegrees,WindSpeedMPH,WindSpeedGustMPH,Humidity,HourlyPrecipIn,Conditions,Clouds,dailyrainin,SoftwareType,DateUTC
2013-02-03 00:06:00,31.7,27.0,29.88,South,181,1.0,7.0,84,0.00,,,0.00,weatherlink.com 1.10,2013-02-03 05:06:00,
2013-02-03 00:21:00,31.8,26.0,29.88,South,181,4.0,14.0,80,0.00,,,0.00,weatherlink.com 1.10,2013-02-03 05:21:00,
2013-02-03 00:36:00,31.6,26.0,29.87,South,184,1.0,17.0,80,0.00,,,0.00,weatherlink.com 1.10,2013-02-03 05:36:00,
2013-02-03 00:51:00,31.4,26.0,29.87,South,180,8.0,12.0,80,0.00,,,0.00,weatherlink.com 1.10,2013-02-03 05:51:00,
2013-02-03 01:06:00,31.4,26.0,29.87,SSE,166,8.0,15.0,81,0.00,,,0.00,weatherlink.com 1.10,2013-02-03 06:06:00,
2013-02-03 01:24:00,31.3,26.0,29.86,South,172,0.0,19.0,81,0.00,,,0.00,weatherlink.com 1.10,2013-02-03 06:24:00,
2013-02-03 01:36:00,31.1,26.0,29.86,South,184,2.0,13.0,82,0.00,,,0.00,weatherlink.com 1.10,2013-02-03 06:36:00,
2013-02-03 01:51:00,31.0,26.0,29.85,South,180,4.0,14.0,81,0.00,,,0.00,weatherlink.com 1.10,2013-02-03 06:51:00,
2013-02-03 02:06:00,30.8,26.0,29.85,South,183,5.0,13.0,81,0.00,,,0.00,weatherlink.com 1.10,2013-02-03 07:06:00,
2013-02-03 02:21:00,30.8,26.0,29.85,South,173,2.0,17.0,82,0.00,,,0.00,weatherlink.com 1.10,2013-02-03 07:21:00,
2013-02-03 02:36:00,30.7,26.0,29.84,South,184,3.0,17.0,81,0.00,,,0.00,weatherlink.com 1.10,2013-02-03 07:36:00,
2013-02-03 02:51:00,30.6,25.0,29.84,South,177,3.0,12.0,81,0.00,,,0.00,weatherlink.com 1.10,2013-02-03 07:51:00,
2013-02-03 03:07:00,30.5,25.0,29.84,South,170,7.0,14.0,80,0.00,,,0.00,weatherlink.com 1.10,2013-02-03 08:07:00,
2013-02-03 03:21:00,30.1,25.0,29.84,South,183,3.0,20.0,80,0.00,,,0.00,weatherlink.com 1.10,2013-02-03 08:21:00,
2013-02-03 03:36:00,29.2,23.0,29.83,South,183,4.0,16.0,78,0.00,,,0.00,weatherlink.com 1.10,2013-02-03 08:36:00,
2013-02-03 03:52:00,28.4,21.0,29.84,South,177,4.0,26.0,73,0.00,,,0.00,weatherlink.com 1.10,2013-02-03 08:52:00,
2013-02-03 04:22:00,27.6,21.0,29.83,South,179,1.0,12.0,76,0.00,,,0.00,weatherlink.com 1.10,2013-02-03 09:22:00,
2013-02-03 04:37:00,27.7,21.0,29.83,South,184,8.0,17.0,75,0.00,,,0.00,weatherlink.com 1.10,2013-02-03 09:37:00,
2013-02-03 04:52:00,27.5,21.0,29.84,South,175,4.0,22.0,75,0.00,,,0.00,weatherlink.com 1.10,2013-02-03 09:52:00,
2013-02-03 05:07:00,27.3,21.0,29.84,South,179,4.0,17.0,77,0.00,,,0.00,weatherlink.com 1.10,2013-02-03 10:07:00,
2013-02-03 05:22:00,27.3,22.0,29.84,South,175,1.0,11.0,79,0.00,,,0.00,weatherlink.com 1.10,2013-02-03 10:22:00,
2013-02-03 05:37:00,27.5,22.0,29.84,South,173,0.0,15.0,79,0.00,,,0.00,weatherlink.com 1.10,2013-02-03 10:37:00,
2013-02-03 05:52:00,27.6,22.0,29.84,South,170,7.0,20.0,79,0.00,,,0.00,weatherlink.com 1.10,2013-02-03 10:52:00,
2013-02-03 06:07:00,27.8,22.0,29.84,South,169,2.0,16.0,79,0.00,,,0.00,weatherlink.com 1.10,2013-02-03 11:07:00,
2013-02-03 06:22:00,28.1,22.0,29.84,South,181,2.0,13.0,79,0.00,,,0.00,weatherlink.com 1.10,2013-02-03 11:22:00,
2013-02-03 06:37:00,28.3,23.0,29.84,South,181,1.0,12.0,79,0.00,,,0.00,weatherlink.com 1.10,2013-02-03 11:37:00,
2013-02-03 06:52:00,28.4,23.0,29.84,South,176,0.0,9.0,79,0.00,,,0.00,weatherlink.com 1.10,2013-02-03 11:52:00,
2013-02-03 07:07:00,28.7,23.0,29.83,South,169,2.0,13.0,79,0.00,,,0.00,weatherlink.com 1.10,2013-02-03 12:07:00,
2013-02-03 07:22:00,28.7,23.0,29.83,South,173,4.0,13.0,80,0.00,,,0.00,weatherlink.com 1.10,2013-02-03 12:22:00,
2013-02-03 07:37:00,28.8,23.0,29.83,South,180,5.0,14.0,80,0.00,,,0.00,weatherlink.com 1.10,2013-02-03 12:37:00,
2013-02-03 07:52:00,29.4,24.0,29.83,South,173,4.0,12.0,79,0.00,,,0.00,weatherlink.com 1.10,2013-02-03 12:52:00,
2013-02-03 08:07:00,30.0,24.0,29.83,South,177,1.0,10.0,79,0.00,,,0.00,weatherlink.com 1.10,2013-02-03 13:07:00,
2013-02-03 08:22:00,30.5,24.0,29.83,South,173,3.0,14.0,78,0.00,,,0.00,weatherlink.com 1.10,2013-02-03 13:22:00,
2013-02-03 08:37:00,29.4,26.0,29.84,South,170,0.0,12.0,86,0.00,,,0.00,weatherlink.com 1.10,2013-02-03 13:37:00,
2013-02-03 08:52:00,28.5,26.0,29.84,South,177,2.0,14.0,90,0.00,,,0.00,weatherlink.com 1.10,2013-02-03 13:52:00,
2013-02-03 09:07:00,28.8,26.0,29.84,South,172,4.0,11.0,90,0.00,,,0.00,weatherlink.com 1.10,2013-02-03 14:07:00,
2013-02-03 09:22:00,29.7,27.0,29.84,South,183,4.0,12.0,90,0.00,,,0.00,weatherlink.com 1.10,2013-02-03 14:22:00,
2013-02-03 09:37:00,30.8,28.0,29.84,South,169,2.0,12.0,88,0.00,,,0.00,weatherlink.com 1.10,2013-02-03 14:37:00,
2013-02-03 09:52:00,31.0,28.0,29.85,South,172,7.0,12.0,87,0.00,,,0.00,weatherlink.com 1.10,2013-02-03 14:52:00,
2013-02-03 10:07:00,31.1,28.0,29.84,South,177,4.0,11.0,87,0.00,,,0.00,weatherlink.com 1.10,2013-02-03 15:07:00,
2013-02-03 10:22:00,30.8,27.0,29.84,South,176,1.0,15.0,86,0.00,,,0.00,weatherlink.com 1.10,2013-02-03 15:22:00,
2013-02-03 10:37:00,31.1,27.0,29.84,South,174,6.0,10.0,86,0.00,,,0.00,weatherlink.com 1.10,2013-02-03 15:37:00,
2013-02-03 10:52:00,31.2,28.0,29.84,South,176,1.0,12.0,86,0.00,,,0.00,weatherlink.com 1.10,2013-02-03 15:52:00,
2013-02-03 11:07:00,32.5,29.0,29.84,South,176,4.0,15.0,86,0.00,,,0.00,weatherlink.com 1.10,2013-02-03 16:07:00,
2013-02-03 11:22:00,34.0,29.0,29.84,South,173,5.0,12.0,83,0.00,,,0.00,weatherlink.com 1.10,2013-02-03 16:22:00,
2013-02-03 11:37:00,34.0,29.0,29.83,SSE,156,10.0,17.0,82,0.00,,,0.00,weatherlink.com 1.10,2013-02-03 16:37:00,
2013-02-03 11:52:00,35.0,29.0,29.83,South,172,1.0,14.0,79,0.00,,,0.00,weatherlink.com 1.10,2013-02-03 16:52:00,
2013-02-03 12:07:00,35.1,29.0,29.82,South,174,4.0,21.0,78,0.02,,,0.02,weatherlink.com 1.10,2013-02-03 17:07:00,
2013-02-03 12:22:00,35.9,30.0,29.82,South,174,3.0,11.0,79,0.02,,,0.02,weatherlink.com 1.10,2013-02-03 17:22:00,
2013-02-03 12:37:00,37.2,28.0,29.81,South,181,6.0,14.0,70,0.02,,,0.02,weatherlink.com 1.10,2013-02-03 17:37:00,
2013-02-03 12:53:00,36.9,28.0,29.80,South,175,3.0,23.0,70,0.02,,,0.02,weatherlink.com 1.10,2013-02-03 17:53:00,
2013-02-03 13:07:00,37.9,27.0,29.79,South,177,7.0,22.0,65,0.00,,,0.02,weatherlink.com 1.10,2013-02-03 18:07:00,
2013-02-03 13:23:00,38.0,26.0,29.78,South,186,8.0,13.0,63,0.00,,,0.02,weatherlink.com 1.10,2013-02-03 18:23:00,
2013-02-03 13:38:00,37.7,26.0,29.77,South,183,2.0,24.0,64,0.00,,,0.02,weatherlink.com 1.10,2013-02-03 18:38:00,
2013-02-03 13:53:00,37.5,26.0,29.76,South,172,7.0,18.0,63,0.00,,,0.02,weatherlink.com 1.10,2013-02-03 18:53:00,
2013-02-03 14:08:00,37.3,24.0,29.76,South,179,4.0,20.0,60,0.00,,,0.02,weatherlink.com 1.10,2013-02-03 19:08:00,
2013-02-03 14:23:00,36.5,24.0,29.77,South,179,4.0,21.0,61,0.00,,,0.02,weatherlink.com 1.10,2013-02-03 19:23:00,
2013-02-03 14:38:00,36.9,24.0,29.77,South,170,7.0,27.0,61,0.00,,,0.02,weatherlink.com 1.10,2013-02-03 19:38:00,
2013-02-03 14:53:00,37.5,24.0,29.78,South,169,5.0,19.0,59,0.00,,,0.02,weatherlink.com 1.10,2013-02-03 19:53:00,
2013-02-03 15:08:00,37.1,23.0,29.78,SSE,156,9.0,17.0,58,0.00,,,0.02,weatherlink.com 1.10,2013-02-03 20:08:00,
2013-02-03 15:23:00,36.7,24.0,29.78,South,177,5.0,14.0,61,0.00,,,0.02,weatherlink.com 1.10,2013-02-03 20:23:00,
2013-02-03 15:38:00,36.1,24.0,29.78,South,172,4.0,24.0,62,0.00,,,0.02,weatherlink.com 1.10,2013-02-03 20:38:00,
2013-02-03 15:53:00,35.6,24.0,29.79,SSE,168,7.0,23.0,63,0.00,,,0.02,weatherlink.com 1.10,2013-02-03 20:53:00,
2013-02-03 16:08:00,35.3,24.0,29.78,South,176,2.0,21.0,63,0.00,,,0.02,weatherlink.com 1.10,2013-02-03 21:08:00,
2013-02-03 16:23:00,34.9,24.0,29.80,SSE,162,9.0,19.0,65,0.00,,,0.02,weatherlink.com 1.10,2013-02-03 21:23:00,
2013-02-03 16:38:00,34.3,25.0,29.79,South,169,7.0,20.0,68,0.00,,,0.02,weatherlink.com 1.10,2013-02-03 21:38:00,
2013-02-03 16:53:00,34.1,25.0,29.81,South,175,5.0,26.0,69,0.00,,,0.02,weatherlink.com 1.10,2013-02-03 21:53:00,
2013-02-03 17:08:00,33.5,24.0,29.81,South,172,5.0,20.0,69,0.00,,,0.02,weatherlink.com 1.10,2013-02-03 22:08:00,
2013-02-03 17:23:00,32.8,23.0,29.82,SSE,162,12.0,21.0,68,0.00,,,0.02,weatherlink.com 1.10,2013-02-03 22:23:00,
2013-02-03 17:38:00,32.2,23.0,29.82,South,173,1.0,23.0,69,0.00,,,0.02,weatherlink.com 1.10,2013-02-03 22:38:00,
2013-02-03 17:53:00,31.6,22.0,29.82,South,170,6.0,15.0,69,0.00,,,0.02,weatherlink.com 1.10,2013-02-03 22:53:00,
2013-02-03 18:08:00,31.3,22.0,29.82,South,172,4.0,16.0,69,0.00,,,0.02,weatherlink.com 1.10,2013-02-03 23:08:00,
2013-02-03 18:23:00,31.1,22.0,29.83,South,174,3.0,22.0,70,0.00,,,0.02,weatherlink.com 1.10,2013-02-03 23:23:00,
2013-02-03 18:38:00,31.1,22.0,29.84,South,174,4.0,16.0,70,0.00,,,0.02,weatherlink.com 1.10,2013-02-03 23:38:00,
2013-02-03 18:53:00,30.9,23.0,29.84,South,173,2.0,16.0,71,0.00,,,0.02,weatherlink.com 1.10,2013-02-03 23:53:00,
2013-02-03 19:08:00,30.6,22.0,29.84,South,174,5.0,21.0,71,0.00,,,0.02,weatherlink.com 1.10,2013-02-04 00:08:00,
2013-02-03 19:23:00,30.5,23.0,29.84,South,174,4.0,14.0,73,0.00,,,0.02,weatherlink.com 1.10,2013-02-04 00:23:00,
2013-02-03 19:38:00,30.1,23.0,29.84,South,171,5.0,17.0,74,0.00,,,0.02,weatherlink.com 1.10,2013-02-04 00:38:00,
2013-02-03 19:53:00,29.7,22.0,29.84,South,174,3.0,12.0,74,0.00,,,0.02,weatherlink.com 1.10,2013-02-04 00:53:00,
2013-02-03 20:08:00,29.4,22.0,29.84,South,169,6.0,17.0,73,0.00,,,0.02,weatherlink.com 1.10,2013-02-04 01:08:00,
2013-02-03 20:23:00,29.1,22.0,29.85,South,174,7.0,18.0,74,0.00,,,0.02,weatherlink.com 1.10,2013-02-04 01:23:00,
2013-02-03 20:38:00,29.0,21.0,29.85,South,178,6.0,21.0,73,0.00,,,0.02,weatherlink.com 1.10,2013-02-04 01:38:00,
2013-02-03 20:53:00,28.5,21.0,29.84,South,176,8.0,13.0,74,0.00,,,0.02,weatherlink.com 1.10,2013-02-04 01:53:00,
2013-02-03 21:08:00,28.2,21.0,29.84,South,173,5.0,13.0,74,0.00,,,0.02,weatherlink.com 1.10,2013-02-04 02:08:00,
2013-02-03 21:23:00,27.6,20.0,29.85,South,172,6.0,14.0,74,0.00,,,0.02,weatherlink.com 1.10,2013-02-04 02:23:00,
2013-02-03 21:38:00,27.2,20.0,29.84,South,170,6.0,19.0,74,0.00,,,0.02,weatherlink.com 1.10,2013-02-04 02:38:00,
2013-02-03 21:53:00,27.0,19.0,29.84,South,175,5.0,21.0,73,0.00,,,0.02,weatherlink.com 1.10,2013-02-04 02:53:00,
2013-02-03 22:08:00,26.9,19.0,29.85,South,170,6.0,17.0,73,0.00,,,0.02,weatherlink.com 1.10,2013-02-04 03:08:00,
2013-02-03 22:23:00,26.7,19.0,29.85,South,176,11.0,16.0,72,0.00,,,0.02,weatherlink.com 1.10,2013-02-04 03:23:00,
2013-02-03 22:38:00,26.7,18.0,29.86,South,183,6.0,16.0,70,0.00,,,0.02,weatherlink.com 1.10,2013-02-04 03:38:00,
2013-02-03 23:24:00,26.4,17.0,29.88,South,172,3.0,13.0,67,0.00,,,0.02,weatherlink.com 1.10,2013-02-04 04:24:00,